ニューヨーク/JFK の空港の天気 - METARとTAF

ジョン・F・ケネディ国際空港 ( KJFK / JFK ) - アメリカ ニューヨーク州ニューヨーク
飛行場実況気象(Metar)
観測時間05/10 03:58 EDT (05/10 07:58 UTC)
風向・風速北北東 5m/s
視程10km以上
天気現象
全天の4割程度の雲 雲底高度 240m
全天の8割程度の雲 雲底高度 850m
全天を覆う雲 雲底高度 2590m
気温8.9℃
湿度93%
気圧1006hPa
METARKJFK 100758Z 03010KT 10SM SCT008 BKN028 OVC085 09/08 A2971 RMK AO2 T00890078
過去の天気等 Google飛行場航空写真 Wunderground天気予報

過去48時間のMETAR

飛行場予報(TAF)
発表時間: 5/10 03:03 EDT (5/10 07:03 UTC)
予報対象時間: 10日3時 EDT ~ 11日8時 EDT
風向・風速北東 5m/s
視程10km以上
天気現象弱い雨
少しの雲 雲底高度 340m
全天を覆う雲 雲底高度 760m
10日3時 EDT ~ 10日4時 EDT に一時的に
視程10km以上
天気現象弱い雨 もや
全天の8割程度の雲 雲底高度 340m
全天を覆う雲 雲底高度 760m
10日4時 EDT から
風向・風速北 6m/s
視程10km以上
天気現象弱い雨
全天を覆う雲 雲底高度 400m
10日7時 EDT から
風向・風速北 6m/s
視程10km以上
全天の8割程度の雲 雲底高度 460m
全天を覆う雲 雲底高度 760m
10日12時 EDT から
風向・風速北西 5m/s
視程10km以上
全天の8割程度の雲 雲底高度 1070m
10日15時 EDT から
風向・風速西北西 5m/s
視程10km以上
全天の8割程度の雲 雲底高度 1070m
10日18時 EDT から
風向・風速西 4m/s
視程10km以上
全天の8割程度の雲 雲底高度 1520m
10日21時 EDT から
風向・風速西北西 4m/s
視程10km以上
全天の4割程度の雲 雲底高度 7620m
11日2時 EDT から
風向・風速北西 5m/s
視程10km以上
全天の4割程度の雲 雲底高度 4570m
全天の8割程度の雲 雲底高度 7620m
KJFK 100703Z 1007/1112 04009KT P6SM -RA FEW011 OVC025
TEMPO 1007/1008 6SM -RA BR BKN011 OVC025
FM100800 01011KT P6SM -RA OVC013
FM101100 35012KT P6SM BKN015 OVC025
FM101600 32010KT P6SM BKN035
FM101900 30010KT P6SM BKN035
FM102200 28007KT P6SM BKN050
FM110100 29007KT P6SM SCT250
FM110600 31009KT P6SM SCT150 BKN250